Terminal Aerodrome Forecast
Issued by NWS

Home | Current Version | Previous Version | Text Only | Print | Product List | Glossary On
Versions: 1 2 3 4 5 6 7 8 9 10 11 12 13 14 15 16 17 18 19
000
FTUS43 KBIS 221720
TAFDIK
TAF
KDIK 221720Z 2218/2318 01018G24KT P6SM BKN035 OVC130
     FM222000 36015KT P6SM OVC030
     FM230200 36009KT P6SM OVC040
     FM230500 35007KT P6SM VCSH OVC035
     FM230800 35007KT P6SM OVC015
     FM231200 34006KT P6SM OVC010=

USA.gov is the U.S. government's official web portal to all federal, state and local government web resources and services.